createdAt,value
2022-10-26T00:01:22.128Z,19.07
2022-10-26T00:03:50.051Z,17.96
2022-10-26T00:06:24.895Z,17.16
2022-10-26T00:08:53.068Z,17.73
2022-10-26T00:11:20.651Z,19.70
2022-10-26T00:13:49.152Z,20.70
2022-10-26T00:16:26.988Z,20.11
2022-10-26T00:18:55.101Z,18.70
2022-10-26T00:21:22.744Z,17.69
2022-10-26T00:23:50.381Z,16.98
2022-10-26T00:26:18.052Z,17.47
2022-10-26T00:28:45.645Z,19.60
2022-10-26T00:31:14.958Z,20.80
2022-10-26T00:33:42.818Z,20.37
2022-10-26T00:36:13.731Z,18.99
2022-10-26T00:38:46.090Z,17.86
2022-10-26T00:41:22.876Z,17.04
2022-10-26T00:43:50.849Z,17.54
2022-10-26T00:46:21.907Z,19.73
2022-10-26T00:48:56.841Z,20.96
2022-10-26T00:51:36.848Z,20.01
2022-10-26T00:54:09.748Z,18.53
2022-10-26T00:56:37.660Z,17.47
2022-10-26T00:59:10.558Z,16.70
2022-10-26T01:01:41.109Z,17.11
2022-10-26T01:04:09.281Z,19.27
2022-10-26T01:06:38.324Z,20.51
2022-10-26T01:09:06.267Z,20.28
2022-10-26T01:11:34.057Z,18.90
2022-10-26T01:14:04.861Z,17.72
2022-10-26T01:17:04.985Z,16.87
2022-10-26T01:19:32.569Z,17.56
2022-10-26T01:22:09.081Z,19.54
2022-10-26T01:24:42.594Z,20.63
2022-10-26T01:27:39.223Z,19.71
2022-10-26T01:30:36.398Z,18.24
2022-10-26T01:33:10.569Z,17.26
2022-10-26T01:35:50.243Z,17.81
2022-10-26T01:38:40.838Z,20.29
2022-10-26T01:41:28.183Z,20.66
2022-10-26T01:44:01.162Z,19.11
2022-10-26T01:46:33.565Z,17.89
2022-10-26T01:49:08.178Z,17.03
2022-10-26T01:51:36.959Z,17.36
2022-10-26T01:54:04.570Z,19.53
2022-10-26T01:56:36.634Z,20.55
2022-10-26T01:59:41.559Z,19.66
2022-10-26T02:02:37.247Z,17.98
2022-10-26T02:05:20.806Z,16.91
2022-10-26T02:08:04.993Z,16.21
2022-10-26T02:10:38.527Z,17.01
2022-10-26T02:13:28.336Z,19.27
2022-10-26T02:16:30.417Z,20.33
2022-10-26T02:19:02.503Z,19.19
2022-10-26T02:21:38.014Z,17.82
2022-10-26T02:26:44.038Z,16.12
2022-10-26T02:29:19.122Z,16.69
2022-10-26T02:31:49.242Z,19.00
2022-10-26T02:34:22.422Z,20.19
2022-10-26T02:36:53.636Z,19.91
2022-10-26T02:39:22.249Z,18.49
2022-10-26T02:41:52.356Z,17.36
2022-10-26T02:44:27.063Z,16.56
2022-10-26T02:46:55.807Z,17.03
2022-10-26T02:49:24.362Z,19.00
2022-10-26T02:52:01.485Z,20.02
2022-10-26T02:54:47.154Z,19.04
2022-10-26T02:57:24.433Z,17.63
2022-10-26T02:59:53.914Z,16.67
2022-10-26T03:02:23.174Z,16.01
2022-10-26T03:04:51.177Z,16.37
2022-10-26T03:07:22.382Z,18.19
2022-10-26T03:09:50.176Z,19.34
2022-10-26T03:12:18.193Z,19.75
2022-10-26T03:14:46.370Z,18.56
2022-10-26T03:17:14.026Z,17.40
2022-10-26T03:19:41.612Z,16.56
2022-10-26T03:22:09.275Z,16.76
2022-10-26T03:24:37.882Z,18.64
2022-10-26T03:27:05.514Z,19.80
2022-10-26T03:29:33.248Z,19.29
2022-10-26T03:32:00.922Z,18.01
2022-10-26T03:34:28.632Z,17.03
2022-10-26T03:36:56.288Z,16.30
2022-10-26T03:56:27.153Z,16.49
2022-10-26T03:58:53.397Z,18.11
2022-10-26T04:01:19.660Z,19.46
2022-10-26T04:03:46.107Z,19.66
2022-10-26T04:06:12.867Z,18.39
2022-10-26T04:08:39.185Z,17.15
2022-10-26T04:11:05.529Z,16.29
2022-10-26T04:13:31.852Z,16.29
2022-10-26T04:15:58.159Z,17.93
2022-10-26T04:18:24.463Z,19.43
2022-10-26T04:20:50.796Z,19.79
2022-10-26T04:23:18.819Z,18.56
2022-10-26T04:25:45.397Z,17.39
2022-10-26T04:28:13.162Z,16.50
2022-10-26T04:30:40.317Z,16.40
2022-10-26T04:33:07.131Z,18.11
2022-10-26T04:35:34.191Z,19.57
2022-10-26T04:38:02.693Z,19.53
2022-10-26T04:40:30.171Z,18.15
2022-10-26T04:42:57.081Z,16.96
2022-10-26T04:45:23.524Z,16.11
2022-10-26T04:48:05.374Z,16.44
2022-10-26T04:50:32.056Z,18.52
2022-10-26T04:52:58.495Z,19.40
2022-10-26T04:55:24.835Z,19.84
2022-10-26T04:57:52.291Z,18.66
2022-10-26T05:00:20.277Z,17.17
2022-10-26T05:02:46.641Z,16.05
2022-10-26T05:05:15.106Z,15.25
2022-10-26T05:07:41.621Z,15.66
2022-10-26T05:10:08.772Z,17.69
2022-10-26T05:12:35.101Z,18.80
2022-10-26T05:15:03.944Z,19.38
2022-10-26T05:17:32.717Z,18.65
2022-10-26T05:20:05.121Z,17.27
2022-10-26T05:22:31.847Z,16.18
2022-10-26T05:24:58.173Z,16.20
2022-10-26T05:27:24.419Z,18.05
2022-10-26T05:29:50.731Z,19.21
2022-10-26T05:32:16.954Z,19.57
2022-10-26T05:34:43.392Z,18.31
2022-10-26T05:37:09.742Z,16.98
2022-10-26T05:39:36.036Z,15.99
2022-10-26T05:42:02.378Z,16.15
2022-10-26T05:44:28.638Z,18.26
2022-10-26T05:46:54.966Z,19.60
2022-10-26T05:49:21.203Z,19.83
2022-10-26T05:51:47.506Z,18.34
2022-10-26T05:54:14.171Z,16.97
2022-10-26T05:56:41.211Z,15.94
2022-10-26T05:59:15.647Z,15.18
2022-10-26T06:02:11.013Z,15.95
2022-10-26T06:04:38.021Z,18.46
2022-10-26T06:07:11.461Z,19.21
2022-10-26T06:09:39.139Z,19.01
2022-10-26T06:12:06.958Z,17.64
2022-10-26T06:14:34.591Z,16.44
2022-10-26T06:17:10.004Z,15.57
2022-10-26T06:20:15.235Z,16.17
2022-10-26T06:23:08.788Z,18.75
2022-10-26T06:25:58.744Z,19.52
2022-10-26T06:28:40.917Z,18.37
2022-10-26T06:31:07.625Z,17.03
2022-10-26T06:33:34.106Z,16.13
2022-10-26T06:36:23.379Z,16.58
2022-10-26T06:38:59.330Z,19.01
2022-10-26T06:41:26.354Z,19.64
2022-10-26T06:43:52.931Z,18.30
2022-10-26T06:46:37.778Z,17.04
2022-10-26T06:49:08.100Z,16.07
2022-10-26T06:51:42.678Z,15.43
2022-10-26T06:54:24.263Z,16.23
2022-10-26T06:56:51.766Z,18.75
2022-10-26T06:59:29.957Z,19.71
2022-10-26T07:01:56.261Z,18.59
2022-10-26T07:04:22.560Z,17.28
2022-10-26T07:06:49.051Z,16.36
2022-10-26T07:09:15.290Z,15.73
2022-10-26T07:11:41.500Z,16.39
2022-10-26T07:14:07.995Z,18.78
2022-10-26T07:16:34.293Z,20.08
2022-10-26T07:19:00.632Z,19.33
2022-10-26T07:21:27.361Z,18.01
2022-10-26T07:23:56.249Z,17.06
2022-10-26T07:26:24.885Z,16.38
2022-10-26T07:28:51.617Z,16.70
2022-10-26T07:31:18.318Z,18.78
2022-10-26T07:33:44.728Z,20.15
2022-10-26T07:36:11.856Z,19.33
2022-10-26T07:38:38.851Z,17.96
2022-10-26T07:41:05.555Z,16.96
2022-10-26T07:43:31.897Z,16.20
2022-10-26T07:45:58.319Z,16.52
2022-10-26T07:48:24.544Z,18.69
2022-10-26T07:50:50.805Z,19.79
2022-10-26T07:53:17.029Z,19.03
2022-10-26T07:55:43.316Z,17.77
2022-10-26T07:58:09.688Z,16.82
2022-10-26T08:00:35.997Z,16.09
2022-10-26T08:03:02.249Z,16.47
2022-10-26T08:05:28.807Z,18.54
2022-10-26T08:07:55.184Z,19.46
2022-10-26T08:10:21.848Z,18.56
2022-10-26T08:12:48.232Z,17.40
2022-10-26T08:15:14.491Z,16.55
2022-10-26T08:17:40.798Z,15.89
2022-10-26T08:20:07.735Z,16.18
2022-10-26T08:22:34.109Z,18.37
2022-10-26T08:25:00.344Z,19.63
2022-10-26T08:27:26.717Z,18.90
2022-10-26T08:29:53.121Z,17.59
2022-10-26T08:32:19.729Z,16.64
2022-10-26T08:34:46.168Z,15.94
2022-10-26T08:37:12.600Z,15.40
2022-10-26T08:39:38.808Z,16.17
2022-10-26T08:42:19.749Z,18.43
2022-10-26T08:44:47.857Z,19.05
2022-10-26T08:47:14.202Z,17.92
2022-10-26T08:49:50.374Z,16.72
2022-10-26T08:52:22.625Z,15.84
2022-10-26T08:54:53.603Z,16.27
2022-10-26T08:57:32.797Z,18.54
2022-10-26T09:00:04.365Z,19.42
2022-10-26T09:02:32.036Z,18.16
2022-10-26T09:04:59.343Z,17.01
2022-10-26T09:07:25.521Z,16.17
2022-10-26T09:10:17.329Z,15.58
2022-10-26T09:13:05.074Z,16.50
2022-10-26T09:15:37.757Z,19.02
2022-10-26T09:18:15.874Z,19.65
2022-10-26T09:21:07.857Z,18.33
2022-10-26T09:23:52.784Z,17.06
2022-10-26T09:27:00.829Z,16.25
2022-10-26T09:29:31.443Z,15.60
2022-10-26T09:32:00.730Z,16.19
2022-10-26T09:34:47.178Z,18.51
2022-10-26T09:37:27.545Z,19.90
2022-10-26T09:40:07.156Z,18.88
2022-10-26T09:42:41.172Z,17.66
2022-10-26T09:45:19.298Z,16.86
2022-10-26T09:47:52.144Z,16.27
2022-10-26T09:50:35.142Z,16.74
2022-10-26T09:53:02.421Z,19.39
2022-10-26T09:55:31.256Z,20.05
2022-10-26T09:58:03.172Z,19.02
2022-10-26T10:00:30.166Z,17.97
2022-10-26T10:02:58.074Z,17.26
2022-10-26T10:08:25.295Z,17.49
2022-10-26T10:10:59.953Z,19.72
2022-10-26T10:13:30.304Z,20.44
2022-10-26T10:16:10.727Z,19.39
2022-10-26T10:18:38.490Z,18.31
2022-10-26T10:21:06.361Z,17.69
2022-10-26T10:23:46.835Z,17.34
2022-10-26T10:26:13.291Z,17.01
2022-10-26T10:28:41.941Z,16.79
2022-10-26T10:31:32.419Z,17.57
2022-10-26T10:33:59.266Z,20.26
2022-10-26T10:36:29.515Z,20.77
2022-10-26T10:38:55.996Z,19.69
2022-10-26T10:41:27.997Z,18.70
2022-10-26T10:44:20.521Z,17.97
2022-10-26T10:46:47.127Z,17.44
2022-10-26T10:49:27.004Z,17.12
2022-10-26T10:51:55.238Z,17.92
2022-10-26T10:54:37.061Z,20.29
2022-10-26T10:57:26.195Z,20.95
2022-10-26T11:00:03.304Z,19.73
2022-10-26T11:02:59.217Z,18.77
2022-10-26T11:06:18.126Z,18.02
2022-10-26T11:09:07.139Z,17.46
2022-10-26T11:11:52.898Z,17.10
2022-10-26T11:14:25.548Z,16.78
2022-10-26T11:16:58.388Z,16.53
2022-10-26T11:19:39.401Z,17.35
2022-10-26T11:22:13.073Z,20.17
2022-10-26T11:24:49.061Z,20.93
2022-10-26T11:27:27.743Z,19.79
2022-10-26T11:30:09.331Z,18.71
2022-10-26T11:32:53.848Z,17.94
2022-10-26T11:35:37.202Z,17.41
2022-10-26T11:38:09.176Z,17.01
2022-10-26T11:41:14.775Z,16.74
2022-10-26T11:43:47.807Z,16.47
2022-10-26T11:46:27.885Z,17.20
2022-10-26T11:48:59.471Z,19.75
2022-10-26T11:51:31.882Z,21.00
2022-10-26T11:54:07.172Z,20.19
2022-10-26T11:56:38.172Z,19.08
2022-10-26T11:59:06.068Z,18.26
2022-10-26T12:01:33.868Z,17.69
2022-10-26T12:04:02.437Z,17.27
2022-10-26T12:06:31.396Z,16.95
2022-10-26T12:09:06.157Z,16.71
2022-10-26T12:11:42.508Z,16.54
2022-10-26T12:14:17.917Z,16.40
2022-10-26T12:16:59.361Z,17.44
2022-10-26T12:19:33.579Z,20.23
2022-10-26T12:22:00.701Z,20.73
2022-10-26T12:24:32.828Z,19.67
2022-10-26T12:27:01.610Z,18.71
2022-10-26T12:29:38.212Z,18.02
2022-10-26T12:32:29.977Z,17.53
2022-10-26T12:34:59.665Z,17.10
2022-10-26T12:37:37.603Z,17.60
2022-10-26T12:40:40.498Z,19.90
2022-10-26T12:43:12.739Z,20.42
2022-10-26T12:45:42.716Z,19.36
2022-10-26T12:48:38.426Z,18.49
2022-10-26T12:51:27.136Z,17.75
2022-10-26T12:54:01.333Z,17.25
2022-10-26T12:56:36.393Z,16.87
2022-10-26T12:59:20.950Z,16.62
2022-10-26T13:02:05.904Z,18.27
2022-10-26T13:04:57.921Z,20.24
2022-10-26T13:07:36.815Z,20.50
2022-10-26T13:10:18.945Z,19.27
2022-10-26T13:12:47.323Z,18.22
2022-10-26T13:15:28.406Z,17.56
2022-10-26T13:17:56.852Z,16.99
2022-10-26T13:20:23.424Z,16.57
2022-10-26T13:22:50.245Z,16.17
2022-10-26T13:25:28.481Z,16.75
2022-10-26T13:28:21.115Z,19.27
2022-10-26T13:30:47.521Z,20.52
2022-10-26T13:33:24.015Z,19.55
2022-10-26T13:35:54.362Z,18.38
2022-10-26T13:38:23.599Z,17.60
2022-10-26T13:40:58.302Z,17.07
2022-10-26T13:43:26.579Z,16.64
2022-10-26T13:45:54.569Z,16.34
2022-10-26T13:48:29.128Z,17.14
2022-10-26T13:51:00.737Z,19.68
2022-10-26T13:53:56.708Z,20.38
2022-10-26T13:56:43.723Z,19.17
2022-10-26T13:59:12.776Z,18.13
2022-10-26T14:01:39.728Z,17.50
2022-10-26T14:04:28.217Z,17.05
2022-10-26T14:06:55.677Z,16.70
2022-10-26T14:09:22.585Z,17.38
2022-10-26T14:11:51.989Z,19.72
2022-10-26T14:14:26.189Z,20.51
2022-10-26T14:16:53.573Z,19.34
2022-10-26T14:19:25.569Z,18.20
2022-10-26T14:21:52.577Z,17.36
2022-10-26T14:24:35.799Z,16.76
2022-10-26T14:27:18.118Z,16.28
2022-10-26T14:29:49.817Z,15.92
2022-10-26T14:32:31.377Z,16.94
2022-10-26T14:34:57.645Z,19.40
2022-10-26T14:37:38.095Z,20.23
2022-10-26T14:40:07.353Z,19.24
2022-10-26T14:42:39.414Z,18.06
2022-10-26T14:45:29.524Z,17.19
2022-10-26T14:47:56.818Z,16.48
2022-10-26T14:50:26.810Z,16.06
2022-10-26T14:52:56.157Z,16.59
2022-10-26T14:55:25.293Z,18.55
2022-10-26T14:58:05.530Z,19.85
2022-10-26T15:00:32.883Z,19.44
2022-10-26T15:02:59.583Z,18.19
2022-10-26T15:05:35.558Z,17.22
2022-10-26T15:08:02.720Z,16.50
2022-10-26T15:10:35.036Z,15.95
2022-10-26T15:13:28.539Z,16.53
2022-10-26T15:15:58.554Z,19.17
2022-10-26T15:18:28.443Z,19.63
2022-10-26T15:20:56.228Z,18.47
2022-10-26T15:26:30.551Z,16.49
2022-10-26T15:28:59.352Z,15.91
2022-10-26T15:31:27.356Z,15.44
2022-10-26T15:33:55.060Z,15.91
2022-10-26T15:36:26.925Z,18.19
2022-10-26T15:38:55.729Z,19.11
2022-10-26T15:41:36.781Z,18.02
2022-10-26T15:44:13.872Z,16.84
2022-10-26T15:46:42.314Z,16.05
2022-10-26T15:49:16.388Z,15.48
2022-10-26T15:51:46.104Z,14.99
2022-10-26T15:54:14.578Z,15.53
2022-10-26T15:56:43.864Z,17.97
2022-10-26T15:59:19.312Z,18.73
2022-10-26T16:01:47.127Z,17.50
2022-10-26T16:04:15.054Z,16.40
2022-10-26T16:06:42.935Z,15.59
2022-10-26T16:09:15.589Z,14.96
2022-10-26T16:11:44.535Z,14.41
2022-10-26T16:14:12.962Z,14.95
2022-10-26T16:16:41.417Z,17.25
2022-10-26T16:19:30.895Z,18.12
2022-10-26T16:21:58.630Z,16.82
2022-10-26T16:24:27.843Z,15.70
2022-10-26T16:26:56.382Z,14.88
2022-10-26T16:29:24.244Z,14.27
2022-10-26T16:31:51.870Z,13.78
2022-10-26T16:34:19.646Z,14.34
2022-10-26T16:36:47.368Z,16.85
2022-10-26T16:39:14.985Z,17.59
2022-10-26T16:41:42.610Z,16.45
2022-10-26T16:44:12.886Z,15.31
2022-10-26T16:46:40.482Z,14.48
2022-10-26T16:49:08.171Z,13.87
2022-10-26T16:51:36.013Z,13.35
2022-10-26T16:54:03.954Z,13.83
2022-10-26T16:56:31.771Z,15.93
2022-10-26T16:58:59.446Z,17.31
2022-10-26T17:01:27.242Z,16.58
2022-10-26T17:03:55.038Z,15.31
2022-10-26T17:06:22.809Z,14.35
2022-10-26T17:08:50.443Z,13.65
2022-10-26T17:11:21.025Z,13.14
2022-10-26T17:13:53.815Z,13.62
2022-10-26T17:16:23.690Z,16.10
2022-10-26T17:18:53.926Z,17.13
2022-10-26T17:21:39.892Z,15.95
2022-10-26T17:24:07.657Z,14.60
2022-10-26T17:26:35.465Z,13.74
2022-10-26T17:29:03.826Z,13.07
2022-10-26T17:31:32.071Z,12.46
2022-10-26T17:33:59.748Z,13.07
2022-10-26T17:36:27.637Z,15.52
2022-10-26T17:38:55.830Z,16.35
2022-10-26T17:41:24.561Z,15.36
2022-10-26T17:43:53.310Z,14.19
2022-10-26T17:46:24.214Z,13.33
2022-10-26T17:48:57.230Z,12.68
2022-10-26T18:07:15.855Z,13.15
2022-10-26T18:09:43.481Z,12.47
2022-10-26T18:12:11.218Z,11.91
2022-10-26T18:14:38.809Z,12.43
2022-10-26T18:17:06.805Z,14.88
2022-10-26T18:19:34.519Z,15.56
2022-10-26T18:22:02.176Z,14.46
2022-10-26T18:24:29.832Z,13.33
2022-10-26T18:26:58.144Z,12.52
2022-10-26T18:29:25.749Z,11.93
2022-10-26T18:31:53.336Z,11.46
2022-10-26T18:34:21.037Z,12.37
2022-10-26T18:36:48.868Z,14.99
2022-10-26T18:39:16.586Z,15.75
2022-10-26T18:41:44.494Z,14.52
2022-10-26T18:44:12.622Z,13.30
2022-10-26T18:46:42.593Z,12.40
2022-10-26T18:49:10.497Z,11.77
2022-10-26T18:51:38.308Z,11.30
2022-10-26T18:54:05.985Z,12.01
2022-10-26T18:56:33.685Z,14.52
2022-10-26T18:59:01.670Z,15.83
2022-10-26T19:01:35.123Z,15.16
2022-10-26T19:04:05.836Z,13.72
2022-10-26T19:06:36.817Z,12.62
2022-10-26T19:09:06.855Z,11.85
2022-10-26T19:11:35.356Z,12.30
2022-10-26T19:14:03.694Z,14.80
2022-10-26T19:16:45.190Z,15.91
2022-10-26T19:19:18.508Z,14.66
2022-10-26T19:21:48.257Z,13.38
2022-10-26T19:24:19.088Z,12.47
2022-10-26T19:26:48.622Z,11.78
2022-10-26T19:29:16.960Z,11.23
2022-10-26T19:31:46.680Z,10.75
2022-10-26T19:34:16.304Z,11.55
2022-10-26T19:36:47.065Z,14.20
2022-10-26T19:39:16.432Z,15.36
2022-10-26T19:41:45.374Z,14.42
2022-10-26T19:44:14.556Z,13.12
2022-10-26T19:46:43.650Z,12.16
2022-10-26T19:49:12.869Z,11.45
2022-10-26T19:51:40.725Z,12.02
2022-10-26T19:54:08.941Z,14.42
2022-10-26T19:56:37.381Z,15.71
2022-10-26T19:59:05.706Z,14.84
2022-10-26T20:01:34.124Z,13.52
2022-10-26T20:04:02.776Z,12.53
2022-10-26T20:06:31.067Z,11.81
2022-10-26T20:09:00.106Z,11.20
2022-10-26T20:11:28.336Z,11.85
2022-10-26T20:13:56.503Z,14.45
2022-10-26T20:16:25.043Z,15.36
2022-10-26T20:18:52.702Z,14.15
2022-10-26T20:21:20.453Z,12.88
2022-10-26T20:23:48.096Z,11.95
2022-10-26T20:26:19.301Z,11.28
2022-10-26T20:28:50.946Z,10.74
2022-10-26T20:31:19.884Z,11.44
2022-10-26T20:33:54.930Z,13.88
2022-10-26T20:36:23.031Z,15.45
2022-10-26T20:38:51.446Z,14.62
2022-10-26T20:41:19.660Z,13.16
2022-10-26T20:43:50.581Z,12.09
2022-10-26T20:46:25.352Z,11.30
2022-10-26T20:48:54.109Z,10.70
2022-10-26T20:52:02.699Z,11.31
2022-10-26T20:54:39.414Z,14.52
2022-10-26T20:57:13.645Z,15.46
2022-10-26T20:59:47.559Z,14.01
2022-10-26T21:02:15.841Z,12.58
2022-10-26T21:04:43.562Z,11.55
2022-10-26T21:07:11.744Z,10.70
2022-10-26T21:09:39.355Z,11.15
2022-10-26T21:12:07.254Z,13.77
2022-10-26T21:14:40.533Z,15.40
2022-10-26T21:17:09.321Z,14.47
2022-10-26T21:19:37.611Z,12.86
2022-10-26T21:22:05.241Z,11.72
2022-10-26T21:24:33.046Z,10.96
2022-10-26T21:27:00.697Z,11.52
2022-10-26T21:29:28.424Z,13.97
2022-10-26T21:31:56.082Z,15.39
2022-10-26T21:34:23.932Z,14.99
2022-10-26T21:36:51.526Z,13.59
2022-10-26T21:39:19.210Z,12.44
2022-10-26T21:41:46.884Z,11.61
2022-10-26T21:44:42.159Z,11.90
2022-10-26T21:47:02.084Z,14.40
2022-10-26T21:49:29.854Z,15.39
2022-10-26T21:51:57.468Z,14.42
2022-10-26T21:54:25.060Z,13.17
2022-10-26T21:56:52.786Z,12.21
2022-10-26T21:59:20.401Z,11.48
2022-10-26T22:01:48.427Z,10.92
2022-10-26T22:04:16.172Z,11.31
2022-10-26T22:06:43.878Z,13.62
2022-10-26T22:09:11.476Z,14.87
2022-10-26T22:11:39.124Z,14.80
2022-10-26T22:14:07.242Z,13.51
2022-10-26T22:16:34.840Z,12.38
2022-10-26T22:19:05.931Z,11.57
2022-10-26T22:21:39.045Z,10.96
2022-10-26T22:24:07.792Z,11.54
2022-10-26T22:26:36.970Z,13.92
2022-10-26T22:29:05.225Z,15.04
2022-10-26T22:31:35.396Z,14.14
2022-10-26T22:34:12.724Z,12.83
2022-10-26T22:36:40.471Z,11.84
2022-10-26T22:39:08.089Z,11.16
2022-10-26T22:41:35.695Z,10.61
2022-10-26T22:44:03.719Z,11.05
2022-10-26T22:46:31.423Z,13.44
2022-10-26T22:49:01.562Z,14.90
2022-10-26T22:51:34.531Z,14.48
2022-10-26T22:54:04.423Z,13.03
2022-10-26T22:56:33.684Z,11.91
2022-10-26T22:59:01.668Z,11.11
2022-10-26T23:01:33.004Z,10.52
2022-10-26T23:04:00.753Z,10.98
2022-10-26T23:06:31.504Z,13.33
2022-10-26T23:08:59.817Z,14.86
2022-10-26T23:11:29.287Z,14.42
2022-10-26T23:13:59.514Z,13.08
2022-10-26T23:16:28.437Z,12.05
2022-10-26T23:18:56.563Z,11.31
2022-10-26T23:23:58.358Z,11.41
2022-10-26T23:26:26.256Z,13.88
2022-10-26T23:28:54.088Z,15.10
2022-10-26T23:31:25.690Z,14.88
2022-10-26T23:33:56.123Z,13.42
2022-10-26T23:36:24.681Z,12.29
2022-10-26T23:38:52.771Z,11.47
2022-10-26T23:41:20.414Z,10.83
2022-10-26T23:43:48.068Z,11.12
2022-10-26T23:46:15.881Z,13.20
2022-10-26T23:48:43.665Z,14.62
2022-10-26T23:51:11.254Z,15.08
2022-10-26T23:53:38.877Z,13.90
2022-10-26T23:56:06.999Z,12.58
2022-10-26T23:58:34.811Z,11.56
